Flight Track Log - Related Links

Times and Time Zones

All times are in EDT time to prevent confusion due to time zone crossing. See the N695BK flight status page for this flight to view local times or setup timezone preferences in your user account.

Time Position Orientation Groundspeed Altitude Reporting Facility
EDT Latitude Longitude Course Direction KTS MPH feet Rate Location/Type
Sun 11:37:18 AM 41.8167 -87.7500 283° West 205 236 2,100  Level Chicago TRACON
Sun 11:38:18 AM 41.8333 -87.8500 283° West 286 329 4,200 2,257 Climbing Chicago TRACON
Sun 11:39:07 AM 41.8311 -87.9258 268° West 284 327 6,200 2,649 Climbing Chicago Center
Sun 11:40:09 AM 41.8317 -88.0369 270° West 297 342 9,100 2,613 Climbing Chicago Center
Sun 11:41:11 AM 41.8300 -88.1522 269° West 309 356 11,600 2,129 Climbing Chicago Center
Sun 11:42:13 AM 41.8239 -88.3003 267° West 335 386 13,500 1,707 Climbing Chicago Center
Sun 11:43:14 AM 41.7986 -88.4328 256° West 366 421 15,100 1,610 Climbing Chicago Center
Sun 11:44:16 AM 41.7708 -88.5700 255° West 382 440 16,800 1,597 Climbing Chicago Center
Sun 11:45:18 AM 41.7417 -88.7078 254° West 388 447 18,400 1,500 Climbing Chicago Center
Sun 11:46:20 AM 41.7122 -88.8481 254° West 395 455 19,900 1,463 Climbing Chicago Center
Sun 11:47:21 AM 41.6822 -88.9894 254° West 400 460 21,400 1,561 Climbing Chicago Center
Sun 11:48:23 AM 41.6458 -89.1633 254° West 407 468 23,100 1,548 Climbing Chicago Center
Sun 11:49:25 AM 41.6161 -89.3086 255° West 409 471 24,600 1,403 Climbing Chicago Center
Sun 11:50:27 AM 41.5850 -89.4525 254° West 406 467 26,000 1,415 Climbing Chicago Center
Sun 11:51:28 AM 41.5558 -89.5928 255° West 404 465 27,500 1,415 Climbing Chicago Center
Sun 11:52:30 AM 41.5239 -89.7375 254° West 404 465 28,900 1,403 Climbing Chicago Center
Sun 11:53:32 AM 41.4864 -89.9053 253° West 402 463 30,400 1,258 Climbing Chicago Center
Sun 11:54:34 AM 41.4553 -90.0472 254° West 401 461 31,500 878 Climbing Chicago Center
Sun 11:55:35 AM 41.4219 -90.1917 253° West 406 467 32,200 683 Climbing Chicago Center
Sun 11:56:37 AM 41.3897 -90.3406 254° West 414 476 32,900 677 Climbing Chicago Center
Sun 11:57:39 AM 41.3558 -90.4908 253° West 422 486 33,600 629 Climbing Chicago Center
Sun 11:58:41 AM 41.3203 -90.6444 253° West 431 496 34,200 634 Climbing Chicago Center
Sun 11:59:42 AM 41.2825 -90.7997 252° West 440 506 34,900 732 Climbing Chicago Center
Sun 12:00:44 PM 41.2383 -90.9842 252° West 438 504 35,700 532 Climbing Chicago Center
Sun 12:01:46 PM 41.2000 -91.1386 252° West 442 509 36,000 145 Climbing Chicago Center
Sun 12:02:48 PM 41.1619 -91.2989 253° West 453 521 36,000  Level Chicago Center
Sun 12:03:50 PM 41.1222 -91.4603 252° West 461 531 36,000  Level Chicago Center
Sun 12:04:52 PM 41.0811 -91.6242 252° West 466 536 36,000  Level Chicago Center
Sun 12:05:53 PM 41.0408 -91.7858 252° West 467 537 36,000 293 Level Chicago Center
Sun 12:06:55 PM 40.9931 -91.9781 252° West 464 534 36,600 629 Climbing Chicago Center
Sun 12:07:57 PM 40.9533 -92.1347 251° West 456 525 37,300 629 Climbing Chicago Center
Sun 12:08:59 PM 40.9139 -92.2858 251° West 444 511 37,900 339 Climbing Chicago Center
Sun 12:10:01 PM 40.8753 -92.4369 251° West 441 507 38,000 48 Climbing Chicago Center
Sun 12:11:03 PM 40.8356 -92.5881 251° West 443 510 38,000  Level Chicago Center
Sun 12:12:05 PM 40.7883 -92.7722 251° West 447 514 38,000  Level Chicago Center
Sun 12:13:06 PM 40.7486 -92.9242 251° West 445 512 38,000  Level Chicago Center
Sun 12:13:46 PM 40.7242 -93.0161 251° West 445 512 38,000  Level Minneapolis Center
Sun 12:14:47 PM 40.6847 -93.1661 251° West 441 507 38,000  Level Minneapolis Center
Sun 12:15:49 PM 40.6364 -93.3433 250° West 434 499 38,000  Level Minneapolis Center
Sun 12:16:51 PM 40.5956 -93.4911 250° West 437 503 38,000  Level Minneapolis Center
Sun 12:17:53 PM 40.5578 -93.6397 252° West 436 502 38,000  Level Minneapolis Center
Sun 12:18:54 PM 40.5175 -93.7867 250° West 434 499 38,000  Level Minneapolis Center
Sun 12:19:56 PM 40.4761 -93.9319 250° West 431 496 38,000  Level Minneapolis Center
Sun 12:20:58 PM 40.4258 -94.1075 249° West 431 496 38,000  Level Minneapolis Center
Sun 12:22:00 PM 40.3872 -94.2519 251° West 427 491 38,000  Level Minneapolis Center
Sun 12:23:01 PM 40.3478 -94.3950 250° West 423 487 38,000  Level Minneapolis Center
Sun 12:24:03 PM 40.3086 -94.5372 250° West 420 483 38,000  Level Minneapolis Center
Sun 12:25:05 PM 40.2667 -94.6883 250° West 417 480 38,000  Level Minneapolis Center
Sun 12:26:07 PM 40.2264 -94.8311 250° West 416 479 38,000  Level Minneapolis Center
Sun 12:27:09 PM 40.1853 -94.9739 249° West 418 481 38,000  Level Minneapolis Center
Sun 12:28:10 PM 40.1453 -95.1156 250° West 416 479 38,000  Level Minneapolis Center
Sun 12:29:21 PM 40.0967 -95.2886 250° West 418 481 38,000  Level Kansas City Center
Sun 12:30:23 PM 40.0517 -95.4439 249° West 413 475 38,000  Level Kansas City Center
Sun 12:31:28 PM 40.0069 -95.5956 249° West 415 478 38,000  Level Minneapolis Center
Sun 12:32:26 PM 39.9669 -95.7356 250° West 416 479 38,000  Level Kansas City Center
Sun 12:33:32 PM 39.9247 -95.8764 249° West 413 475 38,000  Level Minneapolis Center
Sun 12:34:34 PM 39.8842 -96.0136 249° West 409 471 38,000  Level Minneapolis Center
Sun 12:35:36 PM 39.8442 -96.1511 249° West 406 467 38,000  Level Minneapolis Center
Sun 12:36:33 PM 39.8036 -96.2850 249° West 407 468 38,000  Level Kansas City Center
Sun 12:37:35 PM 39.7561 -96.4400 248° West 407 468 38,000  Level Kansas City Center
Sun 12:38:37 PM 39.7175 -96.5694 249° West 404 465 38,000  Level Kansas City Center
Sun 12:39:39 PM 39.6714 -96.7211 248° West 405 466 38,000  Level Kansas City Center
Sun 12:40:41 PM 39.6336 -96.8456 249° West 399 459 38,000  Level Kansas City Center
Sun 12:41:42 PM 39.5928 -96.9803 249° West 401 461 38,000  Level Kansas City Center
Sun 12:42:44 PM 39.5522 -97.1122 248° West 398 458 38,000  Level Kansas City Center
Sun 12:43:46 PM 39.5019 -97.2747 248° West 400 460 38,000  Level Kansas City Center
Sun 12:44:48 PM 39.4619 -97.4019 248° West 399 459 38,000  Level Kansas City Center
Sun 12:45:50 PM 39.4161 -97.5517 248° West 400 460 38,000  Level Kansas City Center
Sun 12:46:52 PM 39.3744 -97.6842 248° West 398 458 38,000  Level Kansas City Center
Sun 12:47:54 PM 39.3317 -97.8169 247° West 399 459 38,000  Level Kansas City Center
Sun 12:48:56 PM 39.2906 -97.9508 248° West 394 453 38,000  Level Kansas City Center
Sun 12:49:57 PM 39.2500 -98.0769 247° West 395 455 38,000  Level Kansas City Center
Sun 12:50:59 PM 39.2025 -98.2247 248° West 402 463 38,000  Level Kansas City Center
Sun 12:52:01 PM 39.1594 -98.3572 247° West 402 463 38,000  Level Kansas City Center
Sun 12:52:24 PM 39.1444 -98.4017 246° West 405 466 38,000  Level Denver Center
Sun 12:53:03 PM 39.1158 -98.4928 248° West 410 472 38,000  Level Kansas City Center
Sun 12:54:05 PM 39.0731 -98.6256 247° West 404 465 38,000  Level Kansas City Center
Sun 12:55:07 PM 39.0286 -98.7600 247° West 410 472 38,000  Level Kansas City Center
Sun 12:56:09 PM 38.9781 -98.9172 248° West 401 461 38,000  Level Kansas City Center
Sun 12:56:32 PM 38.9611 -98.9628 244° Southwest 399 459 38,000  Level Denver Center
Sun 12:57:34 PM 38.9192 -99.0897 247° West 396 456 38,000  Level Denver Center
Sun 12:58:36 PM 38.8703 -99.2347 247° West 397 457 38,000  Level Denver Center
Sun 12:59:15 PM 38.8475 -99.3089 248° West 402 463 38,000  Level Kansas City Center
Sun 01:00:17 PM 38.8047 -99.4381 247° West 398 458 38,000  Level Kansas City Center
Sun 01:00:40 PM 38.7803 -99.5050 245° Southwest 396 456 38,000  Level Denver Center
Sun 01:01:42 PM 38.7386 -99.6292 247° West 398 458 38,000  Level Denver Center
Sun 01:02:44 PM 38.6900 -99.7742 247° West 398 458 38,000  Level Denver Center
Sun 01:03:46 PM 38.6486 -99.8953 246° West 392 451 38,000  Level Denver Center
Sun 01:04:48 PM 38.5992 -100.0378 246° West 393 452 38,000  Level Denver Center
Sun 01:05:50 PM 38.5575 -100.1619 247° West 395 455 38,000 48 Level Denver Center
Sun 01:06:52 PM 38.5153 -100.2836 246° West 394 453 38,100 290 Climbing Denver Center
Sun 01:07:54 PM 38.4656 -100.4250 246° West 393 452 38,600 484 Climbing Denver Center
Sun 01:08:56 PM 38.4239 -100.5447 246° West 390 449 39,100 432 Climbing Denver Center
Sun 01:09:59 PM 38.3758 -100.6822 246° West 383 441 39,500 384 Climbing Denver Center
Sun 01:11:01 PM 38.3356 -100.8006 247° West 382 440 39,900 221 Climbing Denver Center
Sun 01:12:15 PM 38.2869 -100.9375 246° West 382 440 40,000 44 Climbing Denver Center
Sun 01:13:17 PM 38.2303 -101.0967 246° West 388 447 40,000  Level Denver Center
Sun 01:14:19 PM 38.1878 -101.2175 246° West 392 451 40,000  Level Denver Center
Sun 01:15:21 PM 38.1372 -101.3583 246° West 394 453 40,000  Level Denver Center
Sun 01:16:23 PM 38.0931 -101.4783 245° Southwest 394 453 40,000  Level Denver Center
Sun 01:17:25 PM 38.0425 -101.6186 245° Southwest 394 453 40,000  Level Denver Center
Sun 01:18:27 PM 37.9994 -101.7378 245° Southwest 391 450 40,000  Level Denver Center
Sun 01:19:29 PM 37.9486 -101.8792 246° West 395 455 40,000  Level Denver Center
Sun 01:20:31 PM 37.9044 -102.0003 245° Southwest 396 456 40,000  Level Denver Center
Sun 01:21:33 PM 37.8525 -102.1403 245° Southwest 395 455 40,000  Level Denver Center
Sun 01:22:35 PM 37.8089 -102.2608 245° Southwest 395 455 40,000  Level Denver Center
Sun 01:23:37 PM 37.7572 -102.3989 245° Southwest 392 451 40,000  Level Denver Center
Sun 01:24:40 PM 37.7106 -102.5250 245° Southwest 391 450 40,000  Level Denver Center
Sun 01:25:42 PM 37.6667 -102.6433 245° Southwest 389 448 40,000  Level Denver Center
Sun 01:26:44 PM 37.6156 -102.7814 245° Southwest 389 448 40,000  Level Denver Center
Sun 01:27:46 PM 37.5708 -102.8986 244° Southwest 387 445 40,000  Level Denver Center
Sun 01:28:48 PM 37.5189 -103.0344 244° Southwest 385 443 40,000  Level Denver Center
Sun 01:29:50 PM 37.4753 -103.1514 245° Southwest 383 441 40,000  Level Denver Center
Sun 01:30:52 PM 37.4319 -103.2667 245° Southwest 381 438 40,000  Level Denver Center
Sun 01:31:54 PM 37.3803 -103.3994 244° Southwest 377 434 40,000  Level Denver Center
Sun 01:32:25 PM 37.3594 -103.4581 246° West 378 435 40,000  Level Albuquerque Center
Sun 01:33:27 PM 37.3069 -103.5903 244° Southwest 377 434 40,000  Level Albuquerque Center
Sun 01:33:58 PM 37.2853 -103.6469 244° Southwest 377 434 40,000  Level Denver Center
Sun 01:35:00 PM 37.2417 -103.7606 244° Southwest 375 432 40,000  Level Denver Center
Sun 01:36:02 PM 37.1897 -103.8911 243° Southwest 372 428 40,000  Level Denver Center
Sun 01:37:04 PM 37.1464 -104.0039 244° Southwest 372 428 40,000  Level Denver Center
Sun 01:37:35 PM 37.1236 -104.0600 243° Southwest 373 429 40,000  Level Albuquerque Center
Sun 01:38:37 PM 37.0719 -104.1922 244° Southwest 376 433 40,000  Level Albuquerque Center
Sun 01:39:39 PM 37.0278 -104.3069 244° Southwest 379 436 40,000  Level Albuquerque Center
Sun 01:40:41 PM 36.9764 -104.4389 244° Southwest 378 435 40,000  Level Albuquerque Center
Sun 01:41:24 PM 36.9533 -104.4958 243° Southwest 377 434 40,000  Level Denver Center
Sun 01:42:27 PM 36.9011 -104.6258 243° Southwest 374 430 40,000  Level Denver Center
Sun 01:43:29 PM 36.8500 -104.7542 244° Southwest 368 423 40,000  Level Denver Center
Sun 01:43:47 PM 36.8364 -104.7897 244° Southwest 369 425 40,000  Level Albuquerque Center
Sun 01:44:49 PM 36.7931 -104.8997 244° Southwest 369 425 40,000  Level Albuquerque Center
Sun 01:45:51 PM 36.7406 -105.0272 243° Southwest 370 426 40,000  Level Albuquerque Center
Sun 01:46:53 PM 36.6961 -105.1369 243° Southwest 371 427 40,000  Level Albuquerque Center
Sun 01:47:55 PM 36.6436 -105.2644 243° Southwest 370 426 40,000  Level Albuquerque Center
Sun 01:48:57 PM 36.5994 -105.3747 244° Southwest 371 427 40,000  Level Albuquerque Center
Sun 01:49:59 PM 36.5472 -105.5042 243° Southwest 374 430 40,000  Level Albuquerque Center
Sun 01:51:01 PM 36.4992 -105.6172 242° Southwest 381 438 40,000  Level Albuquerque Center
Sun 01:52:03 PM 36.4508 -105.7336 243° Southwest 380 437 40,000  Level Albuquerque Center
Sun 01:53:05 PM 36.4022 -105.8553 244° Southwest 390 449 40,000  Level Albuquerque Center
Sun 01:54:07 PM 36.3544 -105.9722 243° Southwest 385 443 40,000  Level Albuquerque Center
Sun 01:55:09 PM 36.3061 -106.0894 243° Southwest 383 441 40,000  Level Albuquerque Center
Sun 01:56:11 PM 36.2472 -106.2286 242° Southwest 382 440 40,000  Level Albuquerque Center
Sun 01:57:13 PM 36.1992 -106.3394 242° Southwest 382 440 40,000  Level Albuquerque Center
Sun 01:58:15 PM 36.1489 -106.4608 243° Southwest 382 440 40,000  Level Albuquerque Center
Sun 01:59:17 PM 36.1006 -106.5775 243° Southwest 382 440 40,000  Level Albuquerque Center
Sun 02:00:19 PM 36.0508 -106.6950 242° Southwest 385 443 40,000  Level Albuquerque Center
Sun 02:01:21 PM 36.0011 -106.8119 242° Southwest 386 444 40,000  Level Albuquerque Center
Sun 02:02:23 PM 35.9411 -106.9522 242° Southwest 386 444 40,000  Level Albuquerque Center
Sun 02:03:25 PM 35.8894 -107.0700 242° Southwest 388 447 40,000  Level Albuquerque Center
Sun 02:04:27 PM 35.8342 -107.2014 243° Southwest 388 447 40,000  Level Albuquerque Center
Sun 02:05:30 PM 35.7844 -107.3142 242° Southwest 390 449 40,000  Level Albuquerque Center
Sun 02:06:32 PM 35.7361 -107.4253 242° Southwest 387 445 40,000  Level Albuquerque Center
Sun 02:07:34 PM 35.6803 -107.5561 242° Southwest 386 444 40,000  Level Albuquerque Center
Sun 02:08:36 PM 35.6306 -107.6686 241° Southwest 388 447 40,000  Level Albuquerque Center
Sun 02:09:38 PM 35.5736 -107.7983 242° Southwest 386 444 40,000  Level Albuquerque Center
Sun 02:10:40 PM 35.5244 -107.9103 242° Southwest 387 445 40,000  Level Albuquerque Center
Sun 02:11:42 PM 35.4686 -108.0367 242° Southwest 381 438 40,000  Level Albuquerque Center
Sun 02:12:44 PM 35.4194 -108.1456 241° Southwest 380 437 40,000  Level Albuquerque Center
Sun 02:13:46 PM 35.3639 -108.2736 242° Southwest 380 437 40,000  Level Albuquerque Center
Sun 02:14:48 PM 35.3153 -108.3825 241° Southwest 380 437 40,000  Level Albuquerque Center
Sun 02:15:50 PM 35.2642 -108.4914 240° Southwest 382 440 40,000  Level Albuquerque Center
Sun 02:16:52 PM 35.1908 -108.6028 231° Southwest 382 440 40,000  Level Albuquerque Center
Sun 02:17:54 PM 35.1494 -108.7131 245° Southwest 373 429 40,000 -435 Level Albuquerque Center
Sun 02:18:56 PM 35.0994 -108.8400 244° Southwest 371 427 39,100 -871 Descending Albuquerque Center
Sun 02:19:58 PM 35.0558 -108.9453 243° Southwest 366 421 38,200 -1,016 Descending Albuquerque Center
Sun 02:21:00 PM 35.0042 -109.0686 243° Southwest 364 419 37,000 -1,073 Descending Albuquerque Center
Sun 02:22:01 PM 34.9575 -109.1808 243° Southwest 379 436 36,000 -488 Descending Albuquerque Center
Sun 02:23:03 PM 34.9094 -109.3147 246° West 384 442 36,000  Level Albuquerque Center
Sun 02:24:05 PM 34.8686 -109.4272 246° West 381 438 36,000  Level Albuquerque Center
Sun 02:25:07 PM 34.8264 -109.5358 245° Southwest 375 432 36,000  Level Albuquerque Center
Sun 02:26:09 PM 34.7783 -109.6667 246° West 377 434 36,000  Level Albuquerque Center
Sun 02:27:11 PM 34.7372 -109.7789 246° West 379 436 36,000  Level Albuquerque Center
Sun 02:28:13 PM 34.6892 -109.9089 246° West 378 435 36,000  Level Albuquerque Center
Sun 02:29:15 PM 34.6478 -110.0194 246° West 376 433 36,000  Level Albuquerque Center
Sun 02:30:17 PM 34.6022 -110.1528 247° West 381 438 36,000 -532 Level Albuquerque Center
Sun 02:31:19 PM 34.5633 -110.2636 247° West 376 433 34,900 -1,452 Descending Albuquerque Center
Sun 02:32:21 PM 34.5128 -110.3833 243° Southwest 362 417 33,000 -1,268 Descending Albuquerque Center
Sun 02:33:22 PM 34.4769 -110.4869 247° West 365 420 32,300 -1,463 Descending Albuquerque Center
Sun 02:34:24 PM 34.4372 -110.5931 246° West 353 406 30,000 -2,565 Descending Albuquerque Center
Sun 02:35:26 PM 34.3903 -110.7089 244° Southwest 380 437 27,000 -2,565 Descending Albuquerque Center
Sun 02:36:28 PM 34.3233 -110.8358 237° Southwest 375 432 24,700 -2,032 Descending Albuquerque Center
Sun 02:37:30 PM 34.2578 -110.9222 227° Southwest 351 404 22,800 -1,790 Descending Albuquerque Center
Sun 02:38:32 PM 34.1917 -111.0069 227° Southwest 349 402 21,000 -1,742 Descending Albuquerque Center
Sun 02:39:34 PM 34.1278 -111.0892 227° Southwest 340 391 19,200 -1,645 Descending Albuquerque Center
Sun 02:40:36 PM 34.0681 -111.1669 227° Southwest 324 373 17,600 -1,597 Descending Albuquerque Center
Sun 02:41:38 PM 34.0083 -111.2433 227° Southwest 315 362 15,900 -1,645 Descending Albuquerque Center
Sun 02:42:40 PM 33.9483 -111.3200 227° Southwest 313 360 14,200 -1,742 Descending Albuquerque Center
Sun 02:43:42 PM 33.8769 -111.4083 226° Southwest 304 350 12,300 -1,500 Descending Albuquerque Center
Sun 02:44:44 PM 33.8144 -111.4628 216° Southwest 275 316 11,100 -1,258 Descending Albuquerque Center
Sun 02:45:46 PM 33.7647 -111.5064 216° Southwest 223 257 9,700 -1,500 Descending Albuquerque Center
Sun 02:46:48 PM 33.7103 -111.5522 215° Southwest 235 270 8,000 -823 Descending Albuquerque Center
Sun 02:47:50 PM 33.6506 -111.5833 203° Southwest 241 277 8,000 48 Level Albuquerque Center
Sun 02:48:52 PM 33.5950 -111.6361 218° Southwest 254 292 8,100 -581 Climbing Albuquerque Center
Sun 02:49:54 PM 33.5447 -111.6925 223° Southwest 247 284 6,800 -1,597 Descending Albuquerque Center
Sun 02:50:56 PM 33.4875 -111.7572 223° Southwest 236 272 4,800 -1,403 Descending Albuquerque Center
Sun 02:51:58 PM 33.4561 -111.8169 238° Southwest 211 243 3,900 -878 Descending Albuquerque Center
Sun 02:52:59 PM 33.4322 -111.8756 244° Southwest 197 227 3,000 -829 Descending Albuquerque Center
Sun 02:54:01 PM 33.4286 -111.9358 266° West 183 211 2,200 -726 Descending Albuquerque Center
Sun 02:55:03 PM 33.4294 -111.9822 271° West 145 167 1,500 -677 Descending Albuquerque Center
Sun 02:57:00 PM 33.4343 -112.0116 270° West  Level Estimated

Login

Don't have an account? Register now (free) for customized features, flight alerts, and more!